Time;durP1;ratioP1;P1;durP2;ratioP2;P2;SDS_P1;SDS_P2;PMS_P1;PMS_P2;Temp;Humidity;BMP_temperature;BMP_pressure;BME280_temperature;BME280_humidity;BME280_pressure;Samples;Min_cycle;Max_cycle;Signal;HPM_P1;HPM_P2
2022/04/25 00:01:57;;;;;;;17.30;7.13;;;9.10;80.10;;;;;;5049759;28;20128;-66
2022/04/25 00:04:22;;;;;;;13.02;7.78;;;9.10;80.40;;;;;;5049131;28;20425;-65
2022/04/25 00:06:48;;;;;;;14.45;8.32;;;9.10;80.30;;;;;;5049596;28;20299;-64
2022/04/25 00:09:14;;;;;;;15.88;7.15;;;9.10;80.50;;;;;;5049442;28;20067;-65
2022/04/25 00:11:40;;;;;;;12.00;7.57;;;9.20;80.10;;;;;;5048445;28;20397;-66
2022/04/25 00:14:07;;;;;;;15.00;6.80;;;9.20;80.20;;;;;;5049288;28;20136;-65
2022/04/25 00:16:33;;;;;;;14.98;7.15;;;9.20;80.20;;;;;;5048979;28;20518;-66
2022/04/25 00:19:00;;;;;;;16.42;7.93;;;9.20;80.10;;;;;;5048861;28;20045;-65
2022/04/25 00:21:26;;;;;;;20.25;7.82;;;9.20;80.20;;;;;;5049384;28;20045;-65
2022/04/25 00:23:51;;;;;;;17.75;9.48;;;9.20;80.30;;;;;;5048811;28;20128;-65
2022/04/25 00:26:17;;;;;;;13.75;7.15;;;9.10;80.30;;;;;;5049258;28;20152;-65
2022/04/25 00:28:43;;;;;;;12.63;7.35;;;9.20;80.30;;;;;;5049085;28;20044;-65
2022/04/25 00:31:09;;;;;;;15.15;6.97;;;9.10;80.70;;;;;;5049059;28;20409;-65
2022/04/25 00:33:35;;;;;;;18.88;7.93;;;9.20;80.50;;;;;;5049044;28;20094;-65
2022/04/25 00:36:01;;;;;;;12.98;6.45;;;9.20;80.60;;;;;;5049074;28;20045;-65
2022/04/25 00:38:26;;;;;;;13.07;6.95;;;9.20;80.50;;;;;;5048530;28;20131;-64
2022/04/25 00:40:52;;;;;;;19.50;6.78;;;9.20;80.50;;;;;;5049096;28;20044;-65
2022/04/25 00:43:19;;;;;;;17.48;6.18;;;9.20;80.50;;;;;;5048692;28;20076;-66
2022/04/25 00:45:44;;;;;;;17.10;7.40;;;9.30;80.20;;;;;;5048998;28;20048;-66
2022/04/25 00:48:10;;;;;;;16.45;7.15;;;9.20;80.10;;;;;;5048526;28;20037;-66
2022/04/25 00:50:38;;;;;;;12.05;6.95;;;9.20;80.50;;;;;;5048784;28;20496;-66
2022/04/25 00:53:05;;;;;;;11.77;6.15;;;9.20;80.60;;;;;;5049054;28;20045;-65
2022/04/25 00:55:31;;;;;;;13.55;6.38;;;9.30;80.30;;;;;;5048847;28;20045;-65
2022/04/25 00:57:57;;;;;;;14.07;6.57;;;9.30;80.10;;;;;;5048314;28;20041;-66
2022/04/25 01:00:24;;;;;;;11.05;5.90;;;9.20;80.10;;;;;;5048804;28;20045;-65
2022/04/25 01:02:49;;;;;;;9.23;6.05;;;9.20;80.10;;;;;;5048978;28;20056;-66
2022/04/25 01:05:15;;;;;;;11.55;6.82;;;9.20;80.00;;;;;;5048978;28;20049;-66
2022/04/25 01:07:41;;;;;;;15.13;6.63;;;9.20;80.00;;;;;;5048501;28;20437;-66
2022/04/25 01:10:08;;;;;;;14.50;6.85;;;9.10;80.00;;;;;;5048868;28;20166;-66
2022/04/25 01:12:34;;;;;;;11.02;6.85;;;9.10;80.10;;;;;;5048679;28;20425;-66
2022/04/25 01:15:03;;;;;;;12.90;7.57;;;9.10;80.20;;;;;;5048825;28;20053;-66
2022/04/25 01:17:28;;;;;;;11.15;5.93;;;9.10;80.20;;;;;;5048954;28;20421;-66
2022/04/25 01:19:54;;;;;;;12.38;6.03;;;9.10;80.20;;;;;;5048366;28;20045;-66
2022/04/25 01:22:27;;;;;;;10.02;6.15;;;9.10;80.20;;;;;;5048764;28;20470;-66
2022/04/25 01:27:38;;;;;;;12.32;7.32;;;9.00;80.20;;;;;;5048739;28;20440;-66
2022/04/25 01:30:07;;;;;;;16.88;8.48;;;9.00;80.10;;;;;;5048397;28;20049;-66
2022/04/25 01:32:33;;;;;;;12.65;7.65;;;9.00;80.00;;;;;;5048699;28;20049;-66
2022/04/25 01:34:58;;;;;;;14.93;7.60;;;8.90;79.80;;;;;;5048351;28;20383;-66
2022/04/25 01:37:24;;;;;;;14.07;7.43;;;8.90;79.90;;;;;;5048490;28;20558;-66
2022/04/25 01:39:54;;;;;;;11.77;7.65;;;8.90;79.60;;;;;;5048758;28;20211;-66
2022/04/25 01:42:21;;;;;;;17.45;8.35;;;9.00;79.40;;;;;;5047839;28;20087;-66
2022/04/25 01:44:47;;;;;;;15.07;7.50;;;8.90;79.30;;;;;;5048351;28;20416;-64
2022/04/25 01:47:13;;;;;;;13.15;8.00;;;8.90;79.10;;;;;;5048389;28;20048;-64
2022/04/25 01:49:39;;;;;;;16.38;8.65;;;8.90;79.30;;;;;;5047829;28;20049;-65
2022/04/25 01:52:10;;;;;;;19.33;8.10;;;8.90;79.20;;;;;;5048504;28;20056;-66
2022/04/25 01:54:36;;;;;;;11.43;7.35;;;8.90;79.10;;;;;;5048509;28;20067;-65
2022/04/25 01:57:02;;;;;;;13.50;8.10;;;8.90;78.90;;;;;;5051936;28;20049;-65
2022/04/25 01:59:30;;;;;;;14.73;7.22;;;8.80;79.40;;;;;;5051593;28;20071;-65
2022/04/25 02:01:56;;;;;;;13.80;6.82;;;8.80;79.50;;;;;;5051968;28;20463;-65
2022/04/25 02:04:22;;;;;;;15.38;8.82;;;8.80;79.30;;;;;;5051956;28;20390;-65
2022/04/25 02:06:48;;;;;;;15.27;9.20;;;8.80;79.50;;;;;;5051829;28;20041;-65
2022/04/25 02:09:14;;;;;;;13.07;7.85;;;8.80;79.70;;;;;;5051769;28;20394;-65
2022/04/25 02:11:40;;;;;;;13.40;7.88;;;8.80;79.70;;;;;;5051065;28;20091;-64
2022/04/25 02:14:05;;;;;;;13.05;7.75;;;8.80;79.40;;;;;;5051251;28;20445;-64
2022/04/25 02:16:31;;;;;;;16.27;7.20;;;8.70;79.70;;;;;;5051825;28;20458;-64
2022/04/25 02:18:57;;;;;;;17.13;7.38;;;8.70;79.50;;;;;;5051388;28;20057;-64
2022/04/25 02:21:24;;;;;;;9.50;6.38;;;8.80;79.10;;;;;;5051470;28;20517;-65
2022/04/25 02:23:49;;;;;;;10.27;6.80;;;8.60;79.30;;;;;;5051408;28;20052;-65
2022/04/25 02:26:15;;;;;;;13.50;8.32;;;8.60;80.00;;;;;;5051014;28;20099;-65
2022/04/25 02:28:40;;;;;;;13.23;6.88;;;8.60;80.10;;;;;;5051146;28;20509;-65
2022/04/25 02:31:07;;;;;;;14.70;7.25;;;8.60;79.60;;;;;;5051226;28;20051;-64
2022/04/25 02:33:34;;;;;;;16.90;8.57;;;8.60;79.80;;;;;;5051511;28;20045;-65
2022/04/25 02:36:04;;;;;;;13.50;7.30;;;8.60;79.90;;;;;;5051103;28;20083;-65
2022/04/25 02:38:30;;;;;;;16.05;7.03;;;8.60;79.80;;;;;;5050848;28;20051;-65
2022/04/25 02:41:05;;;;;;;12.68;6.68;;;8.60;79.60;;;;;;5051031;28;20036;-65
2022/04/25 02:43:33;;;;;;;14.13;6.28;;;8.60;79.60;;;;;;5051168;28;20045;-64
2022/04/25 02:45:59;;;;;;;14.93;7.20;;;8.60;79.80;;;;;;5050773;28;20476;-65
2022/04/25 02:48:24;;;;;;;10.75;6.50;;;8.50;79.60;;;;;;5050869;28;20045;-66
2022/04/25 02:50:50;;;;;;;15.00;7.70;;;8.50;79.50;;;;;;5051026;28;20519;-66
2022/04/25 02:53:16;;;;;;;10.52;6.47;;;8.50;79.60;;;;;;5050714;28;20060;-66
2022/04/25 02:55:41;;;;;;;12.55;6.18;;;8.40;79.50;;;;;;5050797;28;20060;-66
2022/04/25 02:58:08;;;;;;;15.73;7.53;;;8.40;79.60;;;;;;5050758;28;20456;-64
2022/04/25 03:00:34;;;;;;;16.48;7.57;;;8.40;79.50;;;;;;5050347;28;20045;-64
2022/04/25 03:03:00;;;;;;;11.30;7.43;;;8.30;79.60;;;;;;5050770;28;20048;-65
2022/04/25 03:05:26;;;;;;;15.80;7.80;;;8.30;79.70;;;;;;5050843;28;20110;-65
2022/04/25 03:07:51;;;;;;;13.40;6.13;;;8.20;79.80;;;;;;5048345;28;20061;-65
2022/04/25 03:10:17;;;;;;;12.07;6.47;;;8.20;79.80;;;;;;5050054;28;20053;-65
2022/04/25 03:12:42;;;;;;;11.60;6.57;;;8.30;79.70;;;;;;5050404;28;20466;-65
2022/04/25 03:15:09;;;;;;;11.48;6.65;;;8.20;79.70;;;;;;5050621;28;20049;-66
2022/04/25 03:17:34;;;;;;;12.70;6.25;;;8.30;79.30;;;;;;5050656;28;20044;-66
2022/04/25 03:20:00;;;;;;;12.90;6.65;;;8.20;79.70;;;;;;5050571;28;20052;-65
2022/04/25 03:22:26;;;;;;;10.57;6.32;;;8.20;79.70;;;;;;5050025;28;20037;-66
2022/04/25 03:24:51;;;;;;;13.80;6.18;;;8.20;79.70;;;;;;5050427;28;20446;-66
2022/04/25 03:27:17;;;;;;;12.85;6.13;;;8.10;79.90;;;;;;5050369;28;20095;-66
2022/04/25 03:29:42;;;;;;;10.80;5.70;;;8.10;79.90;;;;;;5050314;28;20052;-65
2022/04/25 03:32:08;;;;;;;12.27;7.00;;;8.10;80.00;;;;;;5050391;28;20098;-65
2022/04/25 03:34:36;;;;;;;12.15;6.35;;;8.10;80.10;;;;;;5049874;28;20044;-66
2022/04/25 03:37:02;;;;;;;15.10;6.20;;;8.10;80.20;;;;;;5050211;28;20155;-65
2022/04/25 03:39:29;;;;;;;11.82;6.03;;;8.10;80.20;;;;;;5050463;28;20409;-66
2022/04/25 03:41:55;;;;;;;12.85;5.90;;;8.10;80.40;;;;;;5050161;28;20493;-66
2022/04/25 03:44:21;;;;;;;10.88;5.68;;;8.10;80.20;;;;;;5050012;28;20102;-66
2022/04/25 03:46:47;;;;;;;10.10;5.53;;;8.10;80.20;;;;;;5049592;28;20050;-66
2022/04/25 03:49:14;;;;;;;13.60;6.10;;;8.10;80.40;;;;;;5049873;28;20069;-65
2022/04/25 03:51:41;;;;;;;12.70;6.72;;;8.10;80.40;;;;;;5049977;28;20124;-65
2022/04/25 03:54:06;;;;;;;13.82;6.32;;;8.10;80.00;;;;;;5049940;28;20498;-66
2022/04/25 03:59:16;;;;;;;11.48;6.25;;;8.10;80.00;;;;;;5049543;28;20048;-66
2022/04/25 04:01:42;;;;;;;8.77;6.20;;;8.00;80.10;;;;;;5049308;28;20043;-66
2022/04/25 04:04:07;;;;;;;14.43;5.38;;;8.00;80.30;;;;;;5049525;28;20041;-66
2022/04/25 04:06:34;;;;;;;9.95;6.05;;;8.00;80.10;;;;;;5049478;28;20059;-65
2022/04/25 04:09:44;;;;;;;11.48;5.95;;;8.00;80.40;;;;;;5047633;28;20505;-65
2022/04/25 04:11:48;;;;;;;16.38;6.20;;;8.00;80.60;;;;;;5049360;28;20081;-66
2022/04/25 04:14:14;;;;;;;9.85;5.97;;;8.00;80.40;;;;;;5049404;28;20053;-66
2022/04/25 04:16:41;;;;;;;11.93;6.45;;;8.00;80.50;;;;;;5048842;28;20041;-66
2022/04/25 04:19:07;;;;;;;8.68;6.15;;;8.00;80.50;;;;;;5048934;28;20110;-65
2022/04/25 04:21:33;;;;;;;8.52;5.35;;;8.00;80.60;;;;;;5049532;28;20044;-65
2022/04/25 04:23:59;;;;;;;12.88;5.80;;;8.00;80.80;;;;;;5048717;28;20037;-65
2022/04/25 04:26:25;;;;;;;13.35;7.25;;;8.00;80.80;;;;;;5048482;28;20061;-66
2022/04/25 04:28:50;;;;;;;16.85;6.55;;;8.00;81.00;;;;;;5049238;28;20059;-65
2022/04/25 04:31:16;;;;;;;11.93;6.28;;;8.10;80.50;;;;;;5048944;28;20045;-65
2022/04/25 04:33:41;;;;;;;16.42;7.50;;;8.10;80.70;;;;;;5048971;28;20440;-65
2022/04/25 04:36:19;;;;;;;17.63;6.93;;;8.10;80.70;;;;;;5048954;28;20041;-65
2022/04/25 04:38:45;;;;;;;11.88;6.57;;;8.10;80.90;;;;;;5049046;28;20119;-66
2022/04/25 04:41:11;;;;;;;13.95;7.00;;;8.20;80.60;;;;;;5049253;28;20090;-65
2022/04/25 04:43:37;;;;;;;14.48;7.28;;;8.30;80.40;;;;;;5049498;28;20048;-66
2022/04/25 04:46:03;;;;;;;10.90;6.82;;;8.30;80.40;;;;;;5048117;28;20793;-65
2022/04/25 04:48:28;;;;;;;16.45;6.70;;;8.30;80.10;;;;;;5049573;28;20045;-65
2022/04/25 04:50:55;;;;;;;14.98;8.23;;;8.40;80.10;;;;;;5048473;28;20048;-66
2022/04/25 04:53:22;;;;;;;13.30;5.95;;;8.40;80.20;;;;;;5048685;28;20053;-66
2022/04/25 04:55:48;;;;;;;10.85;6.47;;;8.40;80.10;;;;;;5044978;28;20040;-66
2022/04/25 04:58:14;;;;;;;11.85;6.97;;;8.50;80.00;;;;;;5048516;28;20052;-65
2022/04/25 05:00:44;;;;;;;11.80;6.53;;;8.50;79.40;;;;;;5048364;28;20045;-66
2022/04/25 05:03:13;;;;;;;9.95;6.70;;;8.50;79.50;;;;;;5048864;28;20095;-65
2022/04/25 05:05:39;;;;;;;10.68;6.32;;;8.50;79.30;;;;;;5048600;28;20127;-65
2022/04/25 05:08:05;;;;;;;12.85;6.35;;;8.60;79.20;;;;;;5048257;28;20049;-65
2022/04/25 05:10:31;;;;;;;11.27;6.53;;;8.60;79.20;;;;;;5048792;28;20048;-65
2022/04/25 05:12:57;;;;;;;13.88;6.50;;;8.50;79.00;;;;;;5048607;28;20144;-65
2022/04/25 05:15:23;;;;;;;10.95;5.40;;;8.50;78.60;;;;;;5048568;28;20049;-66
2022/04/25 05:17:50;;;;;;;12.45;6.70;;;8.50;78.70;;;;;;5048774;28;20123;-65
2022/04/25 05:20:17;;;;;;;12.75;7.25;;;8.50;78.70;;;;;;5047944;28;20136;-65
2022/04/25 05:22:44;;;;;;;9.70;5.85;;;8.60;78.70;;;;;;5048414;28;20044;-64
2022/04/25 05:25:12;;;;;;;8.77;5.78;;;8.60;78.80;;;;;;5047457;28;20413;-65
2022/04/25 05:27:38;;;;;;;12.60;6.32;;;8.60;78.70;;;;;;5048088;28;20463;-65
2022/04/25 05:30:05;;;;;;;10.45;6.03;;;8.60;78.70;;;;;;5049296;28;20044;-65
2022/04/25 05:32:41;;;;;;;13.50;6.45;;;8.60;78.80;;;;;;5052422;28;20052;-66
2022/04/25 05:35:08;;;;;;;12.23;6.60;;;8.70;78.50;;;;;;5052414;28;20438;-65
2022/04/25 05:37:33;;;;;;;11.70;6.53;;;8.60;78.60;;;;;;5051860;28;20402;-66
2022/04/25 05:39:59;;;;;;;10.45;6.18;;;8.60;78.60;;;;;;5052068;28;20091;-66
2022/04/25 05:42:24;;;;;;;10.27;6.03;;;8.60;78.30;;;;;;5052090;28;20083;-66
2022/04/25 05:44:50;;;;;;;16.80;7.22;;;8.60;78.10;;;;;;5052127;28;20440;-65
2022/04/25 05:47:16;;;;;;;13.70;5.93;;;8.60;78.60;;;;;;5051897;28;20665;-65
2022/04/25 05:52:26;;;;;;;15.57;5.88;;;8.60;78.30;;;;;;5052083;28;20049;-66
2022/04/25 05:54:51;;;;;;;9.43;6.10;;;8.60;78.20;;;;;;5051935;28;20495;-66
2022/04/25 05:57:17;;;;;;;12.75;6.28;;;8.60;78.30;;;;;;5052058;28;20036;-65
2022/04/25 05:59:42;;;;;;;9.27;6.20;;;8.60;78.30;;;;;;5051902;28;20045;-65
2022/04/25 06:02:08;;;;;;;12.98;6.40;;;8.60;78.20;;;;;;5051171;28;20041;-66
2022/04/25 06:04:34;;;;;;;13.63;6.78;;;8.60;78.40;;;;;;5051702;28;20446;-65
2022/04/25 06:07:00;;;;;;;12.10;6.35;;;8.60;78.50;;;;;;5051682;28;20037;-65
2022/04/25 06:09:26;;;;;;;9.52;5.85;;;8.60;78.30;;;;;;5051610;28;20053;-66
2022/04/25 06:11:53;;;;;;;12.98;7.18;;;8.60;78.20;;;;;;5051152;28;20047;-66
2022/04/25 06:14:18;;;;;;;12.38;6.35;;;8.60;78.20;;;;;;5051228;28;20057;-66
2022/04/25 06:16:44;;;;;;;12.18;6.00;;;8.60;78.40;;;;;;5051532;28;20080;-66
2022/04/25 06:19:10;;;;;;;13.88;6.15;;;8.60;78.30;;;;;;5051308;28;20044;-66
2022/04/25 06:21:35;;;;;;;12.90;6.13;;;8.60;78.20;;;;;;5051531;28;20049;-66
2022/04/25 06:24:01;;;;;;;12.60;6.38;;;8.60;78.00;;;;;;5049332;28;20080;-65
2022/04/25 06:26:28;;;;;;;12.27;6.53;;;8.60;78.00;;;;;;5043923;28;20590;-65
2022/04/25 06:28:56;;;;;;;12.93;6.55;;;8.60;78.20;;;;;;5050156;28;20045;-65
2022/04/25 06:31:23;;;;;;;10.55;6.38;;;8.60;78.50;;;;;;5016850;28;20045;-65
2022/04/25 06:33:48;;;;;;;9.68;6.45;;;8.70;78.60;;;;;;5051062;28;20714;-64
2022/04/25 06:36:14;;;;;;;11.55;6.30;;;8.70;78.70;;;;;;5050422;28;20037;-65
2022/04/25 06:38:40;;;;;;;10.88;6.85;;;8.70;78.30;;;;;;5050912;28;20077;-65
2022/04/25 06:41:07;;;;;;;16.38;9.20;;;8.80;78.10;;;;;;5050576;28;20049;-65
2022/04/25 06:43:33;;;;;;;13.68;6.30;;;8.80;77.40;;;;;;5050922;28;20143;-64
2022/04/25 06:45:58;;;;;;;15.20;6.80;;;8.80;77.60;;;;;;5050545;28;20513;-65
2022/04/25 06:48:24;;;;;;;10.35;6.65;;;8.80;77.20;;;;;;5051154;28;20060;-65
2022/04/25 06:50:50;;;;;;;10.93;6.03;;;8.80;77.20;;;;;;5050228;28;20481;-64
2022/04/25 06:53:15;;;;;;;16.63;7.32;;;8.80;76.90;;;;;;5050677;28;20099;-65
2022/04/25 06:55:41;;;;;;;14.60;6.30;;;8.80;77.00;;;;;;5050361;28;20575;-64
2022/04/25 06:58:07;;;;;;;9.55;5.15;;;8.80;77.20;;;;;;5049995;28;20045;-65
2022/04/25 07:00:35;;;;;;;8.77;5.97;;;8.80;77.20;;;;;;5043158;28;20040;-64
2022/04/25 07:03:01;;;;;;;13.23;5.63;;;8.80;77.00;;;;;;5042546;28;20398;-64
2022/04/25 07:05:26;;;;;;;14.38;6.78;;;8.80;77.20;;;;;;5050344;28;20040;-64
2022/04/25 07:07:52;;;;;;;14.02;6.68;;;8.90;77.20;;;;;;5050077;28;20107;-65
2022/04/25 07:10:18;;;;;;;12.75;7.95;;;8.90;77.20;;;;;;5050495;28;20593;-65
2022/04/25 07:12:44;;;;;;;14.60;6.05;;;9.00;77.20;;;;;;5049984;28;20056;-64
2022/04/25 07:15:10;;;;;;;16.45;6.55;;;9.10;77.10;;;;;;5045662;28;20049;-65
2022/04/25 07:17:35;;;;;;;14.63;6.45;;;9.10;77.10;;;;;;5049287;28;20371;-66
2022/04/25 07:20:01;;;;;;;12.23;5.72;;;9.10;76.70;;;;;;5050678;28;20052;-66
2022/04/25 07:30:40;;;;;;;16.88;7.75;;;9.00;77.00;;;;;;5049881;28;20537;-66
2022/04/25 07:33:05;;;;;;;11.73;6.38;;;9.10;77.00;;;;;;5049830;28;20087;-65
2022/04/25 07:35:31;;;;;;;13.25;7.00;;;9.10;77.00;;;;;;5049918;28;20037;-66
2022/04/25 07:37:57;;;;;;;12.50;5.85;;;9.10;76.90;;;;;;5049994;28;20144;-66
2022/04/25 07:40:23;;;;;;;11.82;5.63;;;9.20;76.90;;;;;;5049765;28;20052;-66
2022/04/25 07:42:49;;;;;;;12.63;6.10;;;9.20;77.00;;;;;;5049603;28;20512;-67
2022/04/25 07:45:15;;;;;;;13.23;5.85;;;9.30;76.90;;;;;;5048388;28;20037;-66
2022/04/25 07:47:43;;;;;;;11.85;5.55;;;9.30;76.60;;;;;;5048648;28;20045;-67
2022/04/25 07:50:12;;;;;;;10.63;5.22;;;9.40;76.30;;;;;;5049566;28;20055;-67
2022/04/25 07:52:38;;;;;;;12.25;5.50;;;9.60;76.00;;;;;;5049437;28;20048;-67
2022/04/25 07:55:06;;;;;;;16.70;6.32;;;9.60;75.70;;;;;;5050166;28;20116;-68
2022/04/25 07:57:32;;;;;;;8.98;5.10;;;9.70;75.10;;;;;;5049977;28;20127;-67
2022/04/25 07:59:58;;;;;;;12.13;5.28;;;9.80;74.90;;;;;;5049467;28;20124;-67
2022/04/25 08:02:24;;;;;;;9.60;4.88;;;9.80;74.80;;;;;;5049648;28;20490;-67
2022/04/25 08:04:49;;;;;;;10.75;5.22;;;9.80;74.60;;;;;;5048658;28;20512;-67
2022/04/25 08:07:16;;;;;;;10.77;5.63;;;9.90;73.70;;;;;;5049471;28;20504;-67
2022/04/25 08:09:42;;;;;;;8.80;5.35;;;9.80;73.80;;;;;;5048986;28;20056;-67
2022/04/25 08:20:22;;;;;;;13.20;5.47;;;10.00;74.40;;;;;;5049502;28;20509;-66
2022/04/25 08:22:47;;;;;;;9.40;5.45;;;10.10;74.00;;;;;;5049054;28;20087;-66
2022/04/25 08:25:15;;;;;;;16.13;5.75;;;10.10;74.00;;;;;;5049405;28;20078;-66
2022/04/25 08:27:41;;;;;;;10.13;5.05;;;10.10;73.70;;;;;;5049447;28;20060;-66
2022/04/25 08:30:07;;;;;;;13.27;5.43;;;10.10;73.60;;;;;;5049411;28;20045;-66
2022/04/25 08:32:33;;;;;;;10.00;5.82;;;10.10;73.70;;;;;;5048815;28;20053;-66
2022/04/25 08:35:00;;;;;;;11.57;5.32;;;10.10;73.90;;;;;;5049185;28;20414;-66
2022/04/25 08:37:26;;;;;;;14.85;5.75;;;10.10;74.10;;;;;;5049227;28;20118;-66
2022/04/25 08:39:52;;;;;;;11.73;5.47;;;10.30;74.10;;;;;;5048967;28;20119;-66
2022/04/25 08:42:19;;;;;;;10.73;6.10;;;10.30;74.00;;;;;;5048506;28;20124;-67
2022/04/25 08:44:49;;;;;;;11.90;5.28;;;10.40;73.90;;;;;;5049214;28;20437;-67
2022/04/25 08:47:15;;;;;;;8.52;5.93;;;10.40;73.70;;;;;;5049198;28;20048;-66
2022/04/25 08:49:42;;;;;;;9.48;5.45;;;10.40;73.70;;;;;;5048931;28;20147;-66
2022/04/25 08:52:09;;;;;;;10.88;5.70;;;10.40;73.70;;;;;;5049025;28;20045;-67
2022/04/25 08:54:35;;;;;;;13.80;5.38;;;10.50;73.60;;;;;;5048091;28;20080;-67
2022/04/25 08:57:03;;;;;;;8.80;4.80;;;10.50;73.50;;;;;;5048224;28;20158;-67
2022/04/25 08:59:31;;;;;;;13.23;5.63;;;10.50;73.70;;;;;;5047500;28;20048;-67
2022/04/25 09:01:57;;;;;;;12.50;5.85;;;10.50;73.80;;;;;;5047589;28;20041;-67
2022/04/25 09:04:23;;;;;;;9.43;4.82;;;10.50;73.70;;;;;;5040588;28;20085;-66
2022/04/25 09:06:55;;;;;;;9.15;4.88;;;10.50;73.50;;;;;;5046460;28;20045;-66
2022/04/25 09:09:21;;;;;;;13.07;5.15;;;10.50;73.70;;;;;;5051814;28;20049;-66
2022/04/25 09:14:32;;;;;;;11.73;5.53;;;10.60;74.10;;;;;;5052008;28;20053;-66
2022/04/25 09:16:59;;;;;;;9.93;5.40;;;10.60;73.80;;;;;;5052378;28;20057;-66
2022/04/25 09:19:26;;;;;;;11.18;4.65;;;10.70;73.40;;;;;;5052047;28;20497;-66
2022/04/25 09:21:51;;;;;;;7.07;4.25;;;10.80;73.20;;;;;;5051454;28;20103;-66
2022/04/25 09:24:25;;;;;;;12.55;5.38;;;10.90;73.40;;;;;;5050338;28;20496;-66
2022/04/25 09:27:09;;;;;;;8.00;3.90;;;11.00;73.20;;;;;;5047042;28;20127;-66
2022/04/25 09:29:36;;;;;;;9.85;4.53;;;11.10;72.70;;;;;;5051191;28;20078;-66
2022/04/25 09:32:03;;;;;;;7.80;3.92;;;11.00;71.30;;;;;;5051321;28;20045;-66
2022/04/25 09:37:15;;;;;;;12.63;4.15;;;11.00;72.00;;;;;;5031835;28;20056;-66
2022/04/25 09:39:40;;;;;;;8.50;4.70;;;11.10;72.30;;;;;;5032189;28;20099;-66
2022/04/25 09:42:07;;;;;;;7.50;5.03;;;11.10;71.70;;;;;;5036453;28;20072;-68
2022/04/25 09:44:55;;;;;;;10.65;4.65;;;11.10;72.10;;;;;;5050954;28;20040;-65
2022/04/25 09:47:29;;;;;;;6.50;4.10;;;11.20;71.70;;;;;;5050509;28;20045;-66
2022/04/25 09:50:13;;;;;;;9.70;4.38;;;11.20;72.00;;;;;;5050443;28;20094;-66
2022/04/25 09:52:53;;;;;;;8.30;3.90;;;11.40;71.70;;;;;;5051964;28;20541;-67
2022/04/25 09:55:19;;;;;;;7.90;4.07;;;11.40;71.40;;;;;;5051502;28;20521;-65
2022/04/25 09:57:46;;;;;;;8.25;3.92;;;11.50;71.50;;;;;;5051008;28;20045;-66
2022/04/25 10:00:28;;;;;;;7.85;4.15;;;11.60;71.20;;;;;;5051543;28;20056;-65
2022/04/25 10:02:54;;;;;;;10.13;4.07;;;11.60;71.20;;;;;;5049432;28;20079;-65
2022/04/25 10:05:20;;;;;;;8.05;4.32;;;11.60;70.60;;;;;;5050611;28;20194;-65
2022/04/25 10:07:46;;;;;;;7.63;3.75;;;11.60;70.80;;;;;;5051594;28;20132;-66
2022/04/25 10:10:13;;;;;;;9.57;3.88;;;11.60;70.80;;;;;;5051186;28;20041;-66
2022/04/25 10:12:39;;;;;;;8.15;3.95;;;11.60;70.70;;;;;;5050797;28;20049;-67
2022/04/25 10:15:06;;;;;;;7.40;3.72;;;11.60;70.80;;;;;;5049584;28;20049;-67
2022/04/25 10:17:32;;;;;;;13.48;4.25;;;11.60;70.60;;;;;;5049069;28;20612;-67
2022/04/25 10:20:01;;;;;;;9.15;4.15;;;11.60;70.70;;;;;;5051027;28;20049;-67
2022/04/25 10:22:26;;;;;;;7.13;3.60;;;11.60;70.90;;;;;;5051108;28;20120;-67
2022/04/25 10:24:52;;;;;;;7.10;3.92;;;11.60;71.00;;;;;;5050044;28;20078;-66
2022/04/25 10:27:24;;;;;;;9.60;3.80;;;11.60;71.20;;;;;;5050744;28;20045;-69
2022/04/25 10:29:53;;;;;;;8.73;3.70;;;11.60;70.80;;;;;;5049457;28;20056;-65
2022/04/25 10:32:23;;;;;;;6.85;4.03;;;11.60;71.20;;;;;;5049487;28;20045;-66
2022/04/25 10:35:01;;;;;;;7.40;4.28;;;11.60;71.30;;;;;;5049866;28;20113;-66
2022/04/25 10:37:34;;;;;;;7.45;4.38;;;11.60;71.30;;;;;;5050239;28;20040;-66
2022/04/25 10:40:05;;;;;;;10.18;3.97;;;11.70;71.50;;;;;;5050654;28;20049;-66
2022/04/25 10:45:15;;;;;;;6.22;3.63;;;11.80;71.30;;;;;;5050315;28;20078;-66
2022/04/25 10:47:59;;;;;;;8.52;4.30;;;11.90;71.50;;;;;;5050528;28;20559;-66
2022/04/25 10:50:26;;;;;;;18.17;5.93;;;12.00;71.30;;;;;;5050668;28;20049;-65
2022/04/25 10:52:55;;;;;;;9.68;4.03;;;12.10;71.50;;;;;;5050040;28;20171;-66
2022/04/25 10:55:29;;;;;;;11.85;4.80;;;12.30;71.30;;;;;;5050301;28;20512;-66
2022/04/25 10:58:05;;;;;;;9.57;4.05;;;12.40;70.90;;;;;;5050459;28;20051;-66
2022/04/25 11:00:36;;;;;;;6.80;3.08;;;12.60;70.40;;;;;;5049995;28;20048;-66
2022/04/25 11:03:13;;;;;;;5.43;3.40;;;12.60;70.10;;;;;;5049575;28;20077;-66
2022/04/25 11:05:41;;;;;;;7.22;3.17;;;12.60;69.50;;;;;;5050635;28;20395;-65
2022/04/25 11:08:15;;;;;;;6.00;3.10;;;12.70;69.50;;;;;;5050313;28;20045;-67
2022/04/25 11:10:48;;;;;;;7.43;3.17;;;12.80;68.70;;;;;;5050563;28;20045;-66
2022/04/25 11:13:18;;;;;;;6.82;3.30;;;12.70;67.90;;;;;;5050322;28;20148;-66
2022/04/25 11:15:49;;;;;;;7.60;3.67;;;12.70;68.00;;;;;;5050127;28;20103;-67
2022/04/25 11:18:35;;;;;;;9.20;3.67;;;12.70;68.40;;;;;;5049842;28;20466;-67
2022/04/25 11:21:05;;;;;;;10.25;3.38;;;12.70;68.30;;;;;;5048152;28;20041;-67
2022/04/25 11:23:32;;;;;;;9.25;3.55;;;12.60;68.20;;;;;;5048843;28;20167;-67
2022/04/25 11:26:04;;;;;;;9.80;3.70;;;12.50;68.20;;;;;;5049910;28;20127;-68
2022/04/25 11:28:30;;;;;;;8.68;3.35;;;12.40;68.10;;;;;;5048708;28;20120;-67
2022/04/25 11:31:17;;;;;;;9.48;3.28;;;12.30;67.90;;;;;;5046299;28;20058;-67
2022/04/25 11:33:47;;;;;;;9.93;4.07;;;12.20;67.90;;;;;;5028752;28;20103;-67
2022/04/25 11:36:13;;;;;;;10.38;3.78;;;12.20;68.30;;;;;;5038954;28;20406;-67
2022/04/25 11:41:29;;;;;;;8.80;4.70;;;12.30;68.60;;;;;;5048897;28;20131;-67
2022/04/25 11:43:55;;;;;;;6.57;3.33;;;12.40;69.10;;;;;;5049486;28;20040;-67
2022/04/25 11:46:21;;;;;;;7.50;3.22;;;12.40;68.40;;;;;;5049536;28;20539;-67
2022/04/25 11:48:50;;;;;;;15.10;3.92;;;12.50;68.40;;;;;;5044532;28;20040;-67
2022/04/25 11:51:26;;;;;;;4.72;3.03;;;12.60;68.20;;;;;;5047833;28;20080;-67
2022/04/25 11:53:53;;;;;;;8.73;3.38;;;12.90;68.20;;;;;;5049161;28;20041;-68
2022/04/25 11:56:21;;;;;;;7.50;3.20;;;13.00;68.00;;;;;;5049109;28;20053;-67
2022/04/25 11:58:48;;;;;;;9.35;3.40;;;12.90;65.80;;;;;;5049376;28;20076;-68
2022/04/25 12:01:30;;;;;;;11.63;4.03;;;13.00;66.50;;;;;;5049363;28;20508;-67
2022/04/25 12:04:15;;;;;;;10.88;3.53;;;13.00;66.40;;;;;;5048586;28;20048;-68
2022/04/25 12:06:51;;;;;;;10.98;3.15;;;13.00;65.70;;;;;;5047788;28;20045;-67
2022/04/25 12:17:42;;;;;;;8.57;3.95;;;12.70;67.50;;;;;;5047698;28;20049;-67
2022/04/25 12:20:10;;;;;;;11.38;4.93;;;12.60;67.80;;;;;;5048693;28;20049;-68
2022/04/25 12:22:36;;;;;;;8.60;3.20;;;12.60;67.80;;;;;;5049565;28;20045;-68
2022/04/25 12:25:23;;;;;;;9.98;4.75;;;12.50;68.00;;;;;;5046032;28;20072;-66
2022/04/25 12:28:07;;;;;;;12.25;4.25;;;12.50;67.60;;;;;;5032105;28;20045;-66
2022/04/25 12:30:55;;;;;;;14.45;4.22;;;12.40;68.20;;;;;;5037747;28;20092;-67
2022/04/25 12:33:33;;;;;;;12.32;3.95;;;12.40;68.50;;;;;;5048348;28;20132;-67
2022/04/25 12:36:10;;;;;;;11.23;3.63;;;12.40;69.10;;;;;;5047827;28;20391;-67
2022/04/25 12:38:42;;;;;;;7.80;3.28;;;12.30;68.80;;;;;;5048437;28;20339;-66
2022/04/25 12:41:10;;;;;;;7.05;3.40;;;12.30;68.40;;;;;;5048750;28;20654;-67
2022/04/25 12:43:36;;;;;;;9.43;4.38;;;12.30;68.20;;;;;;5048797;28;20118;-67
2022/04/25 12:46:03;;;;;;;10.38;3.40;;;12.40;68.00;;;;;;5047020;28;20053;-67
2022/04/25 12:48:28;;;;;;;7.93;3.33;;;12.40;67.90;;;;;;5046885;28;20532;-68
2022/04/25 12:50:54;;;;;;;8.50;3.58;;;12.40;68.10;;;;;;5047122;28;20517;-67
2022/04/25 12:53:40;;;;;;;7.00;3.58;;;12.50;68.20;;;;;;5048494;28;20045;-67
2022/04/25 12:56:06;;;;;;;10.30;4.20;;;12.70;67.70;;;;;;5048682;28;20100;-67
2022/04/25 12:58:34;;;;;;;11.93;4.95;;;12.60;67.90;;;;;;5048731;28;20536;-67
2022/04/25 13:01:00;;;;;;;6.65;3.33;;;12.70;67.90;;;;;;5047270;28;20178;-67
2022/04/25 13:03:26;;;;;;;7.97;3.28;;;12.70;68.00;;;;;;5048877;28;20037;-66
2022/04/25 13:05:53;;;;;;;6.10;2.97;;;12.90;68.10;;;;;;5047521;28;20057;-67
2022/04/25 13:08:20;;;;;;;6.97;3.63;;;12.90;67.70;;;;;;5048894;28;20080;-67
2022/04/25 13:10:45;;;;;;;13.18;3.17;;;12.90;67.40;;;;;;5048910;28;20569;-67
2022/04/25 13:13:11;;;;;;;8.18;3.08;;;13.00;66.80;;;;;;5047420;28;20163;-67
2022/04/25 13:15:38;;;;;;;5.70;3.08;;;12.90;66.80;;;;;;5046949;28;20128;-67
2022/04/25 13:18:05;;;;;;;7.95;3.10;;;13.00;67.30;;;;;;5048866;28;20412;-66
2022/04/25 13:20:31;;;;;;;8.25;3.08;;;13.00;67.40;;;;;;5049088;28;20049;-67
2022/04/25 13:22:59;;;;;;;6.32;2.70;;;13.10;66.90;;;;;;5047598;28;20041;-67
2022/04/25 13:25:25;;;;;;;8.77;3.22;;;13.10;66.00;;;;;;5048349;28;20044;-65
2022/04/25 13:27:51;;;;;;;5.35;3.15;;;13.10;66.40;;;;;;5048356;28;20163;-64
2022/04/25 13:30:18;;;;;;;5.22;2.80;;;13.00;65.30;;;;;;5048498;28;20060;-63
2022/04/25 13:32:44;;;;;;;7.38;2.92;;;13.00;66.20;;;;;;5047909;28;20041;-64